Time;durP1;ratioP1;P1;durP2;ratioP2;P2;SDS_P1;SDS_P2;PMS_P1;PMS_P2;Temp;Humidity;BMP_temperature;BMP_pressure;BME280_temperature;BME280_humidity;BME280_pressure;Samples;Min_cycle;Max_cycle;Signal;HPM_P1;HPM_P2
2021/03/10 00:00:57;;;;;;;12.95;7.63;;;4.60;99.90;;;;;;5088703;28;20082;-64
2021/03/10 00:03:24;;;;;;;14.75;7.53;;;4.60;99.90;;;;;;5089777;28;20441;-64
2021/03/10 00:05:58;;;;;;;12.70;6.93;;;4.60;99.90;;;;;;5076531;28;20119;-64
2021/03/10 00:08:58;;;;;;;15.45;8.30;;;4.60;99.90;;;;;;5076797;28;20072;-64
2021/03/10 00:11:24;;;;;;;12.82;6.90;;;4.60;99.90;;;;;;5093571;28;20060;-64
2021/03/10 00:13:50;;;;;;;14.30;7.85;;;4.60;99.90;;;;;;5076765;28;20047;-64
2021/03/10 00:20:41;;;;;;;11.43;6.93;;;4.60;99.90;;;;;;5094355;28;20046;-64
2021/03/10 00:23:09;;;;;;;15.00;7.53;;;4.60;99.90;;;;;;5094779;28;20063;-64
2021/03/10 00:25:41;;;;;;;15.23;7.80;;;4.80;99.90;;;;;;5093098;28;20051;-64
2021/03/10 00:28:13;;;;;;;14.77;8.13;;;4.60;99.90;;;;;;5074763;28;20052;-64
2021/03/10 00:30:47;;;;;;;17.52;8.57;;;4.60;99.90;;;;;;5094646;28;20041;-64
2021/03/10 00:40:41;;;;;;;14.25;8.48;;;4.60;99.90;;;;;;5094132;28;20092;-64
2021/03/10 00:43:17;;;;;;;15.13;8.13;;;4.70;99.90;;;;;;5076466;28;20110;-64
2021/03/10 00:46:12;;;;;;;14.00;7.43;;;4.70;99.90;;;;;;5074329;28;20040;-63
2021/03/10 00:48:43;;;;;;;;;;;4.60;99.90;;;;;;5094961;28;20154;-64
2021/03/10 00:51:17;;;;;;;11.65;6.70;;;4.70;99.90;;;;;;5094293;28;20367;-64
2021/03/10 00:58:02;;;;;;;12.15;6.95;;;4.60;99.90;;;;;;5079322;28;20094;-64
2021/03/10 01:00:44;;;;;;;12.88;6.57;;;4.60;99.90;;;;;;5073817;28;20040;-64
2021/03/10 01:10:40;;;;;;;11.98;6.45;;;4.70;99.90;;;;;;5093613;28;20061;-65
2021/03/10 01:13:16;;;;;;;12.93;6.75;;;4.60;99.90;;;;;;5033914;28;20064;-65
2021/03/10 01:15:47;;;;;;;14.13;6.93;;;4.70;99.90;;;;;;5051585;28;20040;-64
2021/03/10 01:18:14;;;;;;;13.25;7.22;;;4.60;99.90;;;;;;5053468;28;20045;-65
2021/03/10 01:20:40;;;;;;;11.50;6.65;;;4.60;99.90;;;;;;5053646;28;20045;-65
2021/03/10 01:23:20;;;;;;;12.25;7.00;;;4.60;99.90;;;;;;5033712;28;20103;-64
2021/03/10 01:25:47;;;;;;;12.00;6.53;;;4.60;99.90;;;;;;5050967;28;20052;-65
2021/03/10 01:28:14;;;;;;;13.32;6.85;;;4.60;99.90;;;;;;5053487;28;20045;-65
2021/03/10 01:30:46;;;;;;;13.30;7.13;;;4.60;99.90;;;;;;5053653;28;20045;-65
2021/03/10 01:33:13;;;;;;;10.07;6.63;;;4.50;99.90;;;;;;5052168;28;20052;-65
2021/03/10 01:35:45;;;;;;;13.57;7.68;;;4.50;99.90;;;;;;5053274;28;20477;-65
2021/03/10 01:38:17;;;;;;;13.40;7.00;;;4.60;99.90;;;;;;5047401;28;20048;-65
2021/03/10 01:40:49;;;;;;;11.20;6.50;;;4.50;99.90;;;;;;5052731;28;20080;-64
2021/03/10 01:43:17;;;;;;;13.63;7.05;;;4.60;99.90;;;;;;5053234;28;20472;-64
2021/03/10 01:45:49;;;;;;;13.43;7.07;;;4.50;99.90;;;;;;5053261;28;20037;-65
2021/03/10 01:48:24;;;;;;;11.75;6.72;;;4.60;99.90;;;;;;5053309;28;20503;-65
2021/03/10 01:50:56;;;;;;;10.10;6.13;;;4.50;99.90;;;;;;5033839;28;20048;-64
2021/03/10 01:53:52;;;;;;;12.02;6.55;;;4.50;99.90;;;;;;5053084;28;20116;-64
2021/03/10 01:56:27;;;;;;;10.02;5.80;;;4.50;99.90;;;;;;5053267;28;20045;-64
2021/03/10 02:03:15;;;;;;;9.20;5.25;;;4.40;99.90;;;;;;5054442;28;20087;-65
2021/03/10 02:05:46;;;;;;;11.05;6.13;;;4.40;99.90;;;;;;5055714;28;20098;-65
2021/03/10 02:08:56;;;;;;;9.65;5.63;;;4.40;99.90;;;;;;5037548;28;20410;-65
2021/03/10 02:11:31;;;;;;;9.50;5.88;;;4.40;99.90;;;;;;5052031;28;20051;-65
2021/03/10 02:20:55;;;;;;;9.60;5.55;;;4.30;99.90;;;;;;5093024;28;20036;-65
2021/03/10 02:23:41;;;;;;;8.40;4.88;;;4.30;99.90;;;;;;5076903;28;20091;-65
2021/03/10 02:33:25;;;;;;;8.00;4.85;;;4.30;99.90;;;;;;5096734;28;20094;-64
2021/03/10 02:35:57;;;;;;;10.93;5.15;;;4.30;99.90;;;;;;5097009;28;20495;-65
2021/03/10 02:38:26;;;;;;;9.18;5.22;;;4.20;99.90;;;;;;5096427;28;20122;-65
2021/03/10 02:40:58;;;;;;;11.13;5.68;;;4.30;99.90;;;;;;5096488;28;20046;-65
2021/03/10 02:43:25;;;;;;;9.48;5.35;;;4.30;99.90;;;;;;5078639;28;20454;-65
2021/03/10 02:45:58;;;;;;;10.35;5.63;;;4.30;99.90;;;;;;5096689;28;20044;-64
2021/03/10 02:48:35;;;;;;;9.00;5.28;;;4.30;99.90;;;;;;5096682;28;20487;-65
2021/03/10 02:51:09;;;;;;;10.13;5.22;;;4.30;99.90;;;;;;5076861;28;20051;-65
2021/03/10 02:53:44;;;;;;;8.93;5.35;;;4.20;99.90;;;;;;5079320;28;20091;-65
2021/03/10 02:56:16;;;;;;;11.77;6.10;;;4.30;99.90;;;;;;5077085;28;20083;-65
2021/03/10 02:58:43;;;;;;;9.80;5.78;;;4.30;99.90;;;;;;5096634;28;20498;-65
2021/03/10 03:01:31;;;;;;;11.50;6.07;;;4.20;99.90;;;;;;5078766;28;20048;-65
2021/03/10 03:08:31;;;;;;;8.52;4.95;;;4.20;99.90;;;;;;5081720;28;20082;-65
2021/03/10 03:11:22;;;;;;;10.35;5.38;;;4.20;99.90;;;;;;5074474;28;20041;-65
2021/03/10 03:14:07;;;;;;;11.13;6.25;;;4.20;99.90;;;;;;5053556;28;20045;-64
2021/03/10 03:16:37;;;;;;;10.10;5.60;;;4.20;99.90;;;;;;5041438;28;20463;-64
2021/03/10 03:23:27;;;;;;;11.13;5.57;;;4.10;99.90;;;;;;5055451;28;20036;-65
2021/03/10 03:25:56;;;;;;;10.10;5.47;;;4.10;99.90;;;;;;5050422;28;20067;-65
2021/03/10 03:28:50;;;;;;;10.55;5.78;;;4.10;99.90;;;;;;5055346;28;20056;-65
2021/03/10 03:31:43;;;;;;;11.13;6.20;;;4.10;99.90;;;;;;5038390;28;20040;-65
2021/03/10 03:38:00;;;;;;;10.57;5.47;;;4.00;99.90;;;;;;5051198;28;20078;-65
2021/03/10 03:41:04;;;;;;;9.55;5.28;;;3.90;99.90;;;;;;5050618;28;20045;-65
2021/03/10 03:43:51;;;;;;;9.52;5.60;;;3.90;99.90;;;;;;5035733;28;20056;-64
2021/03/10 03:46:23;;;;;;;11.82;6.10;;;3.80;99.90;;;;;;5055180;28;20041;-65
2021/03/10 03:56:10;;;;;;;9.32;5.28;;;3.60;99.90;;;;;;5053124;28;20431;-64
2021/03/10 03:58:42;;;;;;;11.75;5.82;;;3.60;99.90;;;;;;5054921;28;20041;-64
2021/03/10 04:01:13;;;;;;;10.32;5.55;;;3.50;99.90;;;;;;5036432;28;20122;-64
2021/03/10 04:03:50;;;;;;;10.43;6.05;;;3.40;99.90;;;;;;5054727;28;20040;-64
2021/03/10 04:06:17;;;;;;;9.57;5.60;;;3.40;99.90;;;;;;5035997;28;20053;-64
2021/03/10 04:08:45;;;;;;;12.50;6.35;;;3.40;99.90;;;;;;5054989;28;20048;-64
2021/03/10 04:11:14;;;;;;;11.80;6.55;;;3.40;99.90;;;;;;5055700;28;20499;-64
2021/03/10 04:13:41;;;;;;;11.05;5.85;;;3.40;99.90;;;;;;5094914;28;20043;-64
2021/03/10 04:16:10;;;;;;;10.55;5.93;;;3.40;99.90;;;;;;5074841;28;20078;-64
2021/03/10 04:18:49;;;;;;;10.65;5.78;;;3.30;99.90;;;;;;5093532;28;20032;-65
2021/03/10 04:21:18;;;;;;;12.20;5.78;;;3.30;99.90;;;;;;5094667;28;20476;-64
2021/03/10 04:23:45;;;;;;;11.32;6.53;;;3.30;99.90;;;;;;5094593;28;20472;-64
2021/03/10 04:26:14;;;;;;;12.23;6.95;;;3.30;99.90;;;;;;5093952;28;20044;-64
2021/03/10 04:29:08;;;;;;;11.07;6.63;;;3.30;99.90;;;;;;5094607;28;20433;-64
2021/03/10 04:31:57;;;;;;;11.73;5.88;;;3.30;99.90;;;;;;5094504;28;20475;-64
2021/03/10 04:34:47;;;;;;;10.85;5.68;;;3.30;99.90;;;;;;5060938;28;20143;-64
2021/03/10 04:37:20;;;;;;;10.02;4.90;;;3.20;99.90;;;;;;5081621;28;20044;-64
2021/03/10 04:43:52;;;;;;;8.70;4.85;;;3.20;99.90;;;;;;5093986;28;20375;-64
2021/03/10 04:46:21;;;;;;;9.32;5.43;;;3.20;99.90;;;;;;5076554;28;20078;-64
2021/03/10 04:48:48;;;;;;;10.35;5.68;;;3.10;99.90;;;;;;5090129;28;20511;-64
2021/03/10 04:51:18;;;;;;;11.73;5.88;;;3.20;99.90;;;;;;5094370;28;20093;-64
2021/03/10 04:53:49;;;;;;;10.35;5.95;;;3.10;99.90;;;;;;5094095;28;20078;-65
2021/03/10 04:56:21;;;;;;;11.73;5.68;;;3.10;99.90;;;;;;5093726;28;20046;-64
2021/03/10 04:58:53;;;;;;;11.40;6.28;;;3.10;99.90;;;;;;5093882;28;20044;-64
2021/03/10 05:01:25;;;;;;;11.90;5.88;;;3.10;99.90;;;;;;5094059;28;20118;-65
2021/03/10 05:03:52;;;;;;;10.35;5.78;;;3.20;99.90;;;;;;5088079;28;20060;-65
2021/03/10 05:06:18;;;;;;;11.77;5.97;;;3.10;99.90;;;;;;5093789;28;20047;-65
2021/03/10 05:08:50;;;;;;;11.85;6.50;;;3.20;99.90;;;;;;5094035;28;20384;-64
2021/03/10 05:11:19;;;;;;;11.73;5.75;;;3.20;99.90;;;;;;5074845;28;20087;-64
2021/03/10 05:13:52;;;;;;;11.85;6.57;;;3.30;99.90;;;;;;5090422;28;20055;-64
2021/03/10 05:16:24;;;;;;;11.18;5.63;;;3.30;99.90;;;;;;5093997;28;20038;-64
2021/03/10 05:19:17;;;;;;;11.27;5.57;;;3.30;99.90;;;;;;5073561;28;20404;-64
2021/03/10 05:21:50;;;;;;;11.93;6.20;;;3.30;99.90;;;;;;5076971;28;20042;-64
2021/03/10 05:24:30;;;;;;;13.02;6.57;;;3.30;99.90;;;;;;5076621;28;20044;-64
2021/03/10 05:27:04;;;;;;;12.38;6.22;;;3.30;99.90;;;;;;5077985;28;20118;-64
2021/03/10 05:29:40;;;;;;;12.02;6.65;;;3.30;99.90;;;;;;5093876;28;20138;-64
2021/03/10 05:32:07;;;;;;;13.55;7.28;;;3.30;99.90;;;;;;5061362;28;20047;-64
2021/03/10 05:34:39;;;;;;;14.20;7.32;;;3.20;99.90;;;;;;5093288;28;20499;-64
2021/03/10 05:41:23;;;;;;;10.30;5.32;;;3.20;99.90;;;;;;5093206;28;20554;-64
2021/03/10 05:43:56;;;;;;;13.45;6.55;;;3.30;99.90;;;;;;5091470;28;20365;-64
2021/03/10 05:46:24;;;;;;;15.50;7.22;;;3.30;99.90;;;;;;5073664;28;20033;-64
2021/03/10 05:48:57;;;;;;;14.32;7.15;;;3.30;99.90;;;;;;5084033;28;20201;-64
2021/03/10 05:51:27;;;;;;;13.02;7.07;;;3.30;99.90;;;;;;5089002;28;20040;-64
2021/03/10 05:54:01;;;;;;;16.50;8.82;;;3.30;99.90;;;;;;5093881;28;20044;-64
2021/03/10 06:07:31;;;;;;;12.30;6.35;;;3.40;99.90;;;;;;5093086;28;20046;-64
2021/03/10 06:10:05;;;;;;;15.63;7.25;;;3.50;99.90;;;;;;5073178;28;20028;-64
2021/03/10 06:12:42;;;;;;;14.90;8.18;;;3.50;99.90;;;;;;5080175;28;20084;-64
2021/03/10 06:15:58;;;;;;;15.32;7.30;;;3.50;99.90;;;;;;5053572;28;20059;-64
2021/03/10 06:23:09;;;;;;;15.25;7.45;;;3.50;99.90;;;;;;5072815;28;20093;-64
2021/03/10 06:25:40;;;;;;;14.85;7.70;;;3.60;99.90;;;;;;5067793;28;20048;-64
2021/03/10 06:28:38;;;;;;;14.48;7.85;;;3.60;99.90;;;;;;5072708;28;20391;-64
2021/03/10 06:31:29;;;;;;;16.90;8.52;;;3.60;99.90;;;;;;5073334;28;20051;-64
2021/03/10 06:34:16;;;;;;;15.90;9.02;;;3.60;99.90;;;;;;5071161;28;20047;-65
2021/03/10 06:40:23;;;;;;;15.27;7.78;;;3.60;99.90;;;;;;5072678;28;20051;-64
2021/03/10 06:42:54;;;;;;;16.30;7.97;;;3.60;99.90;;;;;;5072696;28;20538;-65
2021/03/10 06:45:38;;;;;;;16.80;8.45;;;3.60;99.90;;;;;;5067776;28;20502;-65
2021/03/10 06:48:23;;;;;;;17.52;8.82;;;3.60;99.90;;;;;;5073625;28;20041;-64
2021/03/10 06:55:23;;;;;;;16.60;7.90;;;3.60;99.90;;;;;;5076121;28;20130;-64
2021/03/10 06:58:00;;;;;;;16.70;9.40;;;3.70;99.90;;;;;;5072020;28;20072;-64
2021/03/10 07:00:33;;;;;;;14.07;8.60;;;3.70;99.90;;;;;;5076279;28;20052;-64
2021/03/10 07:03:00;;;;;;;16.88;9.50;;;3.80;99.90;;;;;;5066669;28;20491;-64
2021/03/10 07:05:30;;;;;;;18.50;9.35;;;3.80;99.90;;;;;;5076296;28;20074;-64
2021/03/10 07:07:59;;;;;;;19.42;11.48;;;3.80;99.90;;;;;;5075959;28;20074;-64
2021/03/10 07:10:28;;;;;;;17.98;9.48;;;3.80;99.90;;;;;;5075958;28;20068;-64
2021/03/10 07:12:58;;;;;;;16.63;8.68;;;3.80;99.90;;;;;;5071507;28;20115;-64
2021/03/10 07:15:51;;;;;;;16.50;9.10;;;3.80;99.90;;;;;;5054642;28;20499;-64
2021/03/10 07:25:43;;;;;;;14.32;7.80;;;3.80;99.90;;;;;;5052991;28;20041;-64
2021/03/10 07:28:36;;;;;;;18.00;9.30;;;3.90;99.90;;;;;;5036527;28;20044;-64
2021/03/10 07:31:21;;;;;;;18.65;9.02;;;3.90;99.90;;;;;;5055610;28;20045;-63
2021/03/10 07:38:04;;;;;;;17.15;8.52;;;3.90;99.90;;;;;;5055412;28;20048;-65
2021/03/10 07:41:06;;;;;;;16.50;8.82;;;3.90;99.90;;;;;;5041221;28;20041;-65
2021/03/10 07:43:36;;;;;;;17.75;9.32;;;4.00;99.90;;;;;;5038951;28;20139;-65
2021/03/10 07:46:17;;;;;;;18.83;9.70;;;4.00;99.90;;;;;;5054971;28;20083;-64
2021/03/10 07:49:15;;;;;;;17.30;9.10;;;4.00;99.90;;;;;;5055410;28;20049;-66
2021/03/10 07:52:07;;;;;;;15.15;8.50;;;4.10;99.90;;;;;;5040785;28;20056;-65
2021/03/10 07:58:32;;;;;;;16.85;8.82;;;4.10;99.90;;;;;;5054530;28;20052;-66
2021/03/10 08:01:14;;;;;;;18.30;9.73;;;4.20;99.90;;;;;;5052503;28;20477;-67
2021/03/10 08:04:06;;;;;;;20.50;10.65;;;4.20;99.90;;;;;;5055036;28;20049;-66
2021/03/10 08:10:26;;;;;;;16.63;8.88;;;4.20;99.90;;;;;;5047580;28;20404;-65
2021/03/10 08:16:24;;;;;;;15.25;7.53;;;4.30;99.90;;;;;;5054551;28;20053;-63
2021/03/10 08:19:10;;;;;;;20.73;9.70;;;4.40;99.90;;;;;;5054414;28;20075;-65
2021/03/10 08:28:42;;;;;;;20.20;9.32;;;4.50;99.90;;;;;;5042970;28;20123;-66
2021/03/10 08:31:11;;;;;;;15.05;7.80;;;4.50;99.90;;;;;;5054389;28;20040;-66
2021/03/10 08:33:51;;;;;;;15.75;9.00;;;4.60;99.90;;;;;;5050497;28;20037;-66
2021/03/10 08:36:33;;;;;;;13.95;7.82;;;4.70;99.90;;;;;;5065482;28;20381;-67
2021/03/10 08:39:25;;;;;;;17.85;9.45;;;4.70;99.90;;;;;;5054459;28;20080;-67
2021/03/10 08:42:22;;;;;;;16.67;8.52;;;4.80;99.90;;;;;;5051378;28;20429;-67
2021/03/10 08:48:44;;;;;;;15.52;8.40;;;4.90;99.90;;;;;;5053879;28;20086;-68
2021/03/10 08:51:20;;;;;;;17.23;8.85;;;4.90;99.90;;;;;;5053844;28;20040;-68
2021/03/10 08:53:48;;;;;;;16.02;8.55;;;5.00;99.90;;;;;;5054169;28;20436;-67
2021/03/10 08:56:14;;;;;;;17.38;8.57;;;5.00;99.90;;;;;;5054009;28;20041;-66
2021/03/10 08:59:05;;;;;;;18.30;9.23;;;5.10;99.90;;;;;;5053690;28;20043;-66
2021/03/10 09:02:05;;;;;;;17.98;9.45;;;5.10;99.90;;;;;;5053814;28;20493;-66
2021/03/10 09:08:45;;;;;;;15.48;9.35;;;5.20;99.90;;;;;;5053519;28;20083;-66
2021/03/10 09:11:19;;;;;;;18.15;8.82;;;5.30;99.90;;;;;;5048449;28;20404;-66
2021/03/10 09:13:45;;;;;;;;;;;5.40;99.90;;;;;;5050348;28;20037;-66
2021/03/10 09:16:17;;;;;;;21.55;9.25;;;5.40;99.90;;;;;;5093665;28;20377;-66
2021/03/10 09:18:58;;;;;;;18.95;10.18;;;5.50;99.90;;;;;;5093558;28;20036;-65
2021/03/10 09:22:16;;;;;;;20.02;10.27;;;5.50;99.90;;;;;;5086674;28;20577;-65
2021/03/10 09:24:56;;;;;;;17.27;8.98;;;5.60;99.90;;;;;;5092915;28;20040;-66
2021/03/10 09:31:35;;;;;;;14.88;7.97;;;5.70;99.90;;;;;;5093375;28;20047;-67
2021/03/10 09:34:47;;;;;;;22.23;11.05;;;5.80;99.90;;;;;;5084788;28;20048;-68
2021/03/10 09:37:29;;;;;;;21.27;10.60;;;5.90;99.90;;;;;;5093786;28;20040;-68
2021/03/10 09:40:03;;;;;;;23.30;11.85;;;5.90;99.90;;;;;;5089459;28;20047;-69
2021/03/10 09:49:55;;;;;;;20.02;10.02;;;6.10;99.90;;;;;;5088593;28;20051;-67
2021/03/10 09:52:57;;;;;;;24.73;12.02;;;6.10;99.90;;;;;;5093864;28;20040;-68
2021/03/10 09:55:29;;;;;;;21.67;11.48;;;6.30;99.90;;;;;;5055760;28;20115;-68
2021/03/10 09:58:08;;;;;;;25.42;12.23;;;6.30;99.90;;;;;;5077799;28;20089;-68
2021/03/10 10:00:36;;;;;;;28.17;12.85;;;6.40;99.90;;;;;;5093658;28;20040;-68
2021/03/10 10:07:24;;;;;;;28.52;13.48;;;6.40;99.90;;;;;;5092867;28;20042;-67
2021/03/10 10:09:58;;;;;;;26.92;12.57;;;6.50;99.90;;;;;;5091187;28;20488;-73
2021/03/10 10:12:29;;;;;;;;;;;6.50;99.90;;;;;;5074162;28;20040;-74
2021/03/10 10:14:55;;;;;;;19.67;10.82;;;6.60;99.90;;;;;;5087807;28;19920;-73
2021/03/10 10:17:31;;;;;;;25.42;11.82;;;6.60;99.90;;;;;;5093186;28;20128;-74
2021/03/10 10:23:39;;;;;;;19.83;9.40;;;6.60;99.90;;;;;;5094836;28;20127;-74
2021/03/10 10:26:11;;;;;;;29.38;13.30;;;6.70;99.90;;;;;;5076542;28;20093;-70
2021/03/10 10:28:44;;;;;;;25.50;11.98;;;6.70;99.90;;;;;;5092458;28;20048;-66
2021/03/10 10:31:12;;;;;;;27.90;13.05;;;6.80;99.90;;;;;;5096815;28;20036;-72
2021/03/10 10:33:43;;;;;;;24.27;11.85;;;6.80;99.90;;;;;;5096535;28;20056;-65
2021/03/10 10:36:18;;;;;;;24.05;11.38;;;6.80;99.90;;;;;;5096637;28;20484;-73
2021/03/10 10:39:00;;;;;;;26.90;13.40;;;6.90;99.90;;;;;;5097660;28;20443;-73
2021/03/10 10:41:26;;;;;;;25.27;12.55;;;6.90;99.90;;;;;;5096678;28;20049;-68
2021/03/10 10:43:58;;;;;;;28.98;13.13;;;6.90;99.90;;;;;;5096223;28;20040;-67
2021/03/10 10:46:25;;;;;;;22.10;11.38;;;7.00;99.90;;;;;;5096533;28;20078;-66
2021/03/10 10:48:54;;;;;;;24.90;12.52;;;7.00;99.90;;;;;;5092984;28;20097;-68
2021/03/10 10:51:47;;;;;;;27.58;13.80;;;7.00;99.90;;;;;;5096361;28;20051;-67
2021/03/10 10:54:14;;;;;;;28.40;15.32;;;7.10;99.90;;;;;;5080278;28;20135;-71
2021/03/10 11:04:16;;;;;;;22.75;11.70;;;7.10;99.90;;;;;;5096340;28;20059;-66
2021/03/10 11:06:43;;;;;;;20.58;11.00;;;7.10;99.90;;;;;;5078292;28;20052;-67
2021/03/10 11:09:22;;;;;;;22.92;12.25;;;7.10;99.90;;;;;;5079634;28;20097;-67
2021/03/10 11:12:01;;;;;;;25.55;12.73;;;7.20;99.90;;;;;;5077350;28;20491;-66
2021/03/10 11:14:26;;;;;;;24.65;12.48;;;7.20;99.90;;;;;;5095164;28;20051;-67
2021/03/10 11:16:58;;;;;;;26.17;12.85;;;7.20;99.90;;;;;;5096333;28;20036;-71
2021/03/10 11:23:46;;;;;;;24.42;13.07;;;7.20;99.90;;;;;;5095802;28;20112;-70
2021/03/10 11:26:20;;;;;;;24.73;12.13;;;7.20;99.90;;;;;;5096153;28;20032;-71
2021/03/10 11:28:46;;;;;;;24.75;13.18;;;7.20;99.90;;;;;;5085840;28;20475;-72
2021/03/10 11:31:24;;;;;;;28.58;12.68;;;7.30;99.90;;;;;;5090944;28;20254;-71
2021/03/10 11:34:19;;;;;;;29.85;14.95;;;7.30;99.90;;;;;;5091880;28;20055;-70
2021/03/10 11:41:14;;;;;;;25.10;13.45;;;7.30;99.90;;;;;;5095402;28;20047;-69
2021/03/10 11:43:47;;;;;;;25.20;12.35;;;7.30;99.90;;;;;;5091537;28;20036;-68
2021/03/10 11:46:15;;;;;;;24.65;12.65;;;7.30;99.90;;;;;;5095614;28;20043;-70
2021/03/10 11:48:50;;;;;;;25.98;13.35;;;7.30;99.90;;;;;;5095564;28;20044;-69
2021/03/10 11:51:16;;;;;;;28.15;13.93;;;7.30;99.90;;;;;;5084421;28;20097;-68
2021/03/10 11:53:48;;;;;;;26.88;12.82;;;7.40;99.90;;;;;;5095274;28;20056;-70
2021/03/10 11:56:23;;;;;;;25.13;13.30;;;7.40;99.90;;;;;;5095294;28;20119;-71
2021/03/10 11:59:16;;;;;;;30.35;15.13;;;7.40;99.90;;;;;;5095185;28;20398;-71
2021/03/10 12:02:33;;;;;;;27.75;13.05;;;7.40;99.90;;;;;;5094911;28;20036;-69
2021/03/10 12:08:47;;;;;;;25.15;12.60;;;7.50;99.90;;;;;;5095003;28;20039;-68
2021/03/10 12:11:18;;;;;;;29.38;15.50;;;7.50;99.90;;;;;;5095130;28;20143;-68
2021/03/10 12:13:46;;;;;;;26.50;12.45;;;7.50;99.90;;;;;;5095096;28;20040;-68
2021/03/10 12:16:17;;;;;;;27.35;13.48;;;7.50;99.90;;;;;;5094653;28;20129;-67
2021/03/10 12:18:53;;;;;;;30.10;15.38;;;7.50;99.90;;;;;;5074782;28;20040;-67
2021/03/10 12:21:20;;;;;;;26.98;14.65;;;7.60;99.90;;;;;;5070519;28;20081;-67
2021/03/10 12:23:52;;;;;;;28.52;14.10;;;7.60;99.90;;;;;;5094554;28;20039;-68
2021/03/10 12:26:20;;;;;;;22.90;12.40;;;7.60;99.90;;;;;;5094517;28;20040;-68
2021/03/10 12:28:49;;;;;;;30.65;15.70;;;7.60;99.90;;;;;;5095122;28;20048;-70
2021/03/10 12:31:20;;;;;;;27.67;14.40;;;7.70;99.90;;;;;;5075036;28;20102;-69
2021/03/10 12:33:54;;;;;;;26.52;14.30;;;7.70;99.90;;;;;;5090424;28;20078;-69
2021/03/10 12:36:50;;;;;;;26.23;12.27;;;7.70;99.90;;;;;;5094512;28;20074;-68
2021/03/10 12:39:45;;;;;;;27.38;13.05;;;7.70;99.90;;;;;;5078692;28;20536;-67
2021/03/10 12:46:31;;;;;;;24.15;12.98;;;7.80;99.90;;;;;;5093346;28;20388;-66
2021/03/10 12:49:28;;;;;;;23.90;13.35;;;7.80;99.90;;;;;;5074179;28;20120;-67
2021/03/10 12:51:57;;;;;;;28.77;13.00;;;7.90;99.90;;;;;;5061537;28;20495;-67
2021/03/10 12:54:41;;;;;;;26.08;12.18;;;7.80;99.90;;;;;;5078623;28;20067;-67
2021/03/10 12:57:08;;;;;;;27.48;14.05;;;7.90;99.90;;;;;;5079702;28;20048;-72
2021/03/10 12:59:52;;;;;;;26.45;14.63;;;7.90;99.90;;;;;;5094158;28;20092;-71
2021/03/10 13:06:42;;;;;;;28.02;13.93;;;7.90;99.90;;;;;;5093809;28;20031;-70
2021/03/10 13:09:15;;;;;;;30.15;14.93;;;7.90;99.90;;;;;;5094119;28;20403;-70
2021/03/10 13:11:48;;;;;;;30.00;14.73;;;7.90;99.90;;;;;;5094180;28;20056;-71
2021/03/10 13:14:30;;;;;;;23.88;12.48;;;7.90;99.90;;;;;;5059457;28;20479;-71
2021/03/10 13:17:22;;;;;;;28.42;12.70;;;7.90;99.90;;;;;;5036714;28;20045;-71
2021/03/10 13:23:43;;;;;;;28.08;12.88;;;8.00;99.90;;;;;;5053143;28;20032;-72
2021/03/10 13:26:56;;;;;;;26.42;14.45;;;8.00;99.90;;;;;;5054306;28;20052;-71
2021/03/10 13:29:24;;;;;;;27.88;13.70;;;8.00;99.90;;;;;;5034614;28;20095;-72
2021/03/10 13:31:56;;;;;;;29.65;15.48;;;8.00;99.90;;;;;;5053078;28;20405;-70
2021/03/10 13:34:52;;;;;;;30.58;14.25;;;8.00;99.90;;;;;;5053368;28;20540;-71
2021/03/10 13:41:45;;;;;;;34.58;15.77;;;7.90;99.90;;;;;;5047857;28;20125;-73
2021/03/10 13:44:30;;;;;;;26.38;13.68;;;7.90;99.90;;;;;;5042843;28;20059;-74
2021/03/10 13:47:20;;;;;;;27.88;13.48;;;7.90;99.90;;;;;;5053651;28;20087;-71
2021/03/10 13:49:48;;;;;;;26.98;12.95;;;7.90;99.90;;;;;;5053707;28;20063;-71
2021/03/10 13:52:32;;;;;;;32.97;15.68;;;8.00;99.90;;;;;;5053212;28;20526;-69
2021/03/10 13:55:36;;;;;;;28.88;13.98;;;7.90;99.90;;;;;;5051799;28;20469;-69
2021/03/10 13:58:08;;;;;;;29.75;15.05;;;8.00;99.90;;;;;;5053765;28;20049;-71
2021/03/10 14:00:36;;;;;;;31.67;14.02;;;8.10;99.90;;;;;;5053564;28;20037;-69
2021/03/10 14:03:09;;;;;;;30.90;14.30;;;8.00;99.90;;;;;;5053087;28;20044;-69
2021/03/10 14:05:37;;;;;;;27.77;14.33;;;8.00;99.90;;;;;;5057208;28;20117;-68
2021/03/10 14:08:59;;;;;;;29.00;14.32;;;8.00;99.90;;;;;;5056890;28;20055;-70
2021/03/10 14:11:59;;;;;;;28.25;14.45;;;8.00;99.90;;;;;;5051298;28;20044;-70
2021/03/10 14:18:44;;;;;;;25.35;13.23;;;8.00;99.90;;;;;;5037606;28;20049;-71
2021/03/10 14:21:23;;;;;;;30.35;15.85;;;8.00;99.90;;;;;;5055456;28;20116;-71
2021/03/10 14:23:49;;;;;;;31.05;14.93;;;8.00;99.90;;;;;;5056575;28;20041;-69
2021/03/10 14:30:42;;;;;;;28.02;14.27;;;8.00;99.90;;;;;;5056489;28;20040;-71
2021/03/10 14:33:11;;;;;;;27.90;14.63;;;7.90;99.90;;;;;;5036993;28;20132;-69
2021/03/10 14:35:42;;;;;;;29.88;15.32;;;7.90;99.90;;;;;;5051152;28;20045;-68
2021/03/10 14:38:10;;;;;;;31.10;14.85;;;7.90;99.90;;;;;;5050969;28;20041;-68
2021/03/10 14:40:41;;;;;;;27.85;13.88;;;7.90;99.90;;;;;;5056623;28;20484;-69
2021/03/10 14:43:15;;;;;;;26.33;14.02;;;7.90;99.90;;;;;;5037268;28;20038;-69
2021/03/10 14:45:42;;;;;;;26.30;13.43;;;7.90;99.90;;;;;;5046132;28;20052;-68
2021/03/10 14:48:15;;;;;;;27.80;13.57;;;7.90;99.90;;;;;;5036823;28;20087;-68
2021/03/10 14:50:44;;;;;;;28.67;15.05;;;7.90;99.90;;;;;;5050145;28;20040;-68
2021/03/10 14:53:11;;;;;;;27.23;13.88;;;7.90;99.90;;;;;;5056442;28;20033;-70
2021/03/10 14:55:42;;;;;;;29.92;15.45;;;7.90;99.90;;;;;;5052181;28;20158;-69
2021/03/10 14:58:11;;;;;;;24.70;13.13;;;7.90;99.90;;;;;;5050695;28;20037;-69
2021/03/10 15:00:42;;;;;;;30.08;14.68;;;7.90;99.90;;;;;;5054409;28;20408;-69
2021/03/10 15:03:17;;;;;;;29.50;14.57;;;7.90;99.90;;;;;;5035970;28;20037;-70
2021/03/10 15:05:45;;;;;;;27.33;15.07;;;7.80;99.90;;;;;;5051188;28;20052;-71
2021/03/10 15:08:17;;;;;;;31.38;14.80;;;7.80;99.90;;;;;;5055995;28;20457;-68
2021/03/10 15:11:07;;;;;;;29.65;16.48;;;7.80;99.90;;;;;;5054404;28;20124;-71
2021/03/10 15:13:57;;;;;;;30.42;14.25;;;7.70;99.90;;;;;;5055969;28;20061;-67
2021/03/10 15:16:23;;;;;;;32.97;14.45;;;7.70;99.90;;;;;;5052443;28;20078;-71
2021/03/10 15:19:04;;;;;;;28.55;15.18;;;7.80;99.90;;;;;;5095883;28;20476;-68
2021/03/10 15:25:54;;;;;;;28.17;14.40;;;7.60;99.90;;;;;;5095828;28;20490;-70
2021/03/10 15:28:26;;;;;;;27.75;14.43;;;7.60;99.90;;;;;;5096179;28;20062;-69
2021/03/10 15:30:58;;;;;;;28.92;14.90;;;7.60;99.90;;;;;;5070038;28;20040;-71
2021/03/10 15:33:30;;;;;;;29.05;14.25;;;7.60;99.90;;;;;;5075974;28;20072;-70
2021/03/10 15:36:00;;;;;;;30.00;14.48;;;7.50;99.90;;;;;;5094385;28;20071;-72
2021/03/10 15:38:27;;;;;;;30.48;14.43;;;7.50;99.90;;;;;;5095766;28;20040;-70
2021/03/10 15:40:57;;;;;;;32.90;14.93;;;7.50;99.90;;;;;;5096132;28;20063;-69
2021/03/10 15:43:44;;;;;;;28.15;13.95;;;7.50;99.90;;;;;;5095491;28;20047;-76
2021/03/10 15:46:37;;;;;;;26.40;13.00;;;7.40;99.90;;;;;;5094645;28;20040;-70
2021/03/10 15:49:06;;;;;;;19.57;10.80;;;7.50;99.90;;;;;;5095251;28;20044;-71
2021/03/10 15:51:40;;;;;;;30.55;14.75;;;7.50;99.90;;;;;;5095886;28;20044;-72
2021/03/10 15:58:29;;;;;;;28.92;14.90;;;7.40;99.90;;;;;;5095087;28;20047;-72
2021/03/10 16:00:56;;;;;;;28.33;13.65;;;7.40;99.90;;;;;;5075272;28;20407;-70
2021/03/10 16:03:28;;;;;;;28.35;13.40;;;7.40;99.90;;;;;;5094998;28;20475;-70
2021/03/10 16:05:55;;;;;;;28.48;14.65;;;7.40;99.90;;;;;;5085270;28;20044;-70
2021/03/10 16:08:30;;;;;;;25.63;12.77;;;7.40;99.90;;;;;;5095156;28;20044;-70
2021/03/10 16:11:02;;;;;;;31.55;13.30;;;7.40;99.90;;;;;;5095084;28;20052;-70
2021/03/10 16:14:23;;;;;;;28.08;14.48;;;7.40;99.90;;;;;;5094651;28;20407;-70
2021/03/10 16:16:54;;;;;;;32.75;14.75;;;7.30;99.90;;;;;;5081937;28;20492;-70
2021/03/10 16:19:49;;;;;;;24.05;12.73;;;7.30;99.90;;;;;;5064505;28;20043;-76
2021/03/10 16:22:37;;;;;;;27.55;13.50;;;7.30;99.90;;;;;;5050537;28;20115;-71
2021/03/10 16:29:23;;;;;;;28.17;15.48;;;7.30;99.90;;;;;;5068573;28;20514;-65
2021/03/10 16:31:55;;;;;;;28.00;13.60;;;7.30;99.90;;;;;;5070391;28;20146;-66
2021/03/10 16:34:58;;;;;;;28.92;14.45;;;7.10;99.90;;;;;;5056410;28;20045;-66
2021/03/10 16:37:32;;;;;;;25.27;12.70;;;7.20;99.90;;;;;;5058358;28;20044;-67
2021/03/10 16:40:05;;;;;;;26.23;14.40;;;7.20;99.90;;;;;;5059263;28;20385;-71
2021/03/10 16:42:49;;;;;;;24.50;13.75;;;7.20;99.90;;;;;;5074113;28;20048;-69
2021/03/10 16:45:20;;;;;;;25.55;12.65;;;7.20;99.90;;;;;;5060469;28;20105;-67
2021/03/10 16:47:46;;;;;;;26.85;11.98;;;7.20;99.90;;;;;;5073913;28;20119;-68
2021/03/10 16:54:27;;;;;;;26.88;13.90;;;7.20;99.90;;;;;;5073711;28;20035;-72
2021/03/10 16:56:54;;;;;;;24.85;12.38;;;7.20;99.90;;;;;;5063745;28;20123;-69
2021/03/10 16:59:34;;;;;;;24.73;12.60;;;7.20;99.90;;;;;;5073743;28;20472;-70
2021/03/10 17:02:02;;;;;;;26.02;13.30;;;7.20;99.90;;;;;;5072795;28;20056;-70